sensor_id;sensor_type;location;lat;lon;timestamp;P1;durP1;ratioP1;P2;durP2;ratioP2
53285;SDS011;39171;45.550;12.074;2023-11-21T00:02:11;21.23;;;18.58;;
53285;SDS011;39171;45.550;12.074;2023-11-21T00:08:13;21.60;;;19.30;;
53285;SDS011;39171;45.550;12.074;2023-11-21T00:14:14;21.15;;;18.92;;
53285;SDS011;39171;45.550;12.074;2023-11-21T00:20:16;23.98;;;20.25;;
53285;SDS011;39171;45.550;12.074;2023-11-21T00:26:17;21.83;;;19.52;;
53285;SDS011;39171;45.550;12.074;2023-11-21T00:32:24;18.83;;;16.75;;
53285;SDS011;39171;45.550;12.074;2023-11-21T00:38:26;19.80;;;17.70;;
53285;SDS011;39171;45.550;12.074;2023-11-21T00:44:28;18.75;;;16.75;;
53285;SDS011;39171;45.550;12.074;2023-11-21T00:50:29;17.90;;;16.00;;
53285;SDS011;39171;45.550;12.074;2023-11-21T00:56:31;17.83;;;15.98;;
53285;SDS011;39171;45.550;12.074;2023-11-21T01:02:36;18.83;;;16.50;;
53285;SDS011;39171;45.550;12.074;2023-11-21T01:08:37;19.30;;;17.38;;
53285;SDS011;39171;45.550;12.074;2023-11-21T01:14:39;18.17;;;16.02;;
53285;SDS011;39171;45.550;12.074;2023-11-21T01:20:40;18.25;;;15.80;;
53285;SDS011;39171;45.550;12.074;2023-11-21T01:26:41;17.80;;;15.60;;
53285;SDS011;39171;45.550;12.074;2023-11-21T01:32:43;16.90;;;14.32;;
53285;SDS011;39171;45.550;12.074;2023-11-21T01:38:45;14.95;;;13.13;;
53285;SDS011;39171;45.550;12.074;2023-11-21T01:44:46;15.25;;;13.65;;
53285;SDS011;39171;45.550;12.074;2023-11-21T01:50:47;16.30;;;14.52;;
53285;SDS011;39171;45.550;12.074;2023-11-21T01:56:49;17.13;;;15.25;;
53285;SDS011;39171;45.550;12.074;2023-11-21T02:02:51;15.23;;;13.52;;
53285;SDS011;39171;45.550;12.074;2023-11-21T02:08:52;16.25;;;14.25;;
53285;SDS011;39171;45.550;12.074;2023-11-21T02:14:55;16.48;;;14.15;;
53285;SDS011;39171;45.550;12.074;2023-11-21T02:20:56;15.57;;;13.95;;
53285;SDS011;39171;45.550;12.074;2023-11-21T02:26:58;15.45;;;13.40;;
53285;SDS011;39171;45.550;12.074;2023-11-21T02:33:02;14.80;;;13.27;;
53285;SDS011;39171;45.550;12.074;2023-11-21T02:39:22;15.18;;;13.63;;
53285;SDS011;39171;45.550;12.074;2023-11-21T02:45:43;15.93;;;14.23;;
53285;SDS011;39171;45.550;12.074;2023-11-21T02:52:03;14.00;;;12.53;;
53285;SDS011;39171;45.550;12.074;2023-11-21T02:58:23;17.60;;;15.00;;
53285;SDS011;39171;45.550;12.074;2023-11-21T03:04:46;16.65;;;14.80;;
53285;SDS011;39171;45.550;12.074;2023-11-21T03:11:08;20.27;;;16.95;;
53285;SDS011;39171;45.550;12.074;2023-11-21T03:17:28;18.67;;;16.40;;
53285;SDS011;39171;45.550;12.074;2023-11-21T03:23:48;18.70;;;16.47;;
53285;SDS011;39171;45.550;12.074;2023-11-21T03:30:08;19.77;;;15.67;;
53285;SDS011;39171;45.550;12.074;2023-11-21T03:36:29;17.08;;;15.18;;
53285;SDS011;39171;45.550;12.074;2023-11-21T03:42:49;16.27;;;14.57;;
53285;SDS011;39171;45.550;12.074;2023-11-21T03:49:09;16.20;;;14.50;;
53285;SDS011;39171;45.550;12.074;2023-11-21T04:01:50;16.95;;;15.15;;
53285;SDS011;39171;45.550;12.074;2023-11-21T04:08:10;17.57;;;15.70;;
53285;SDS011;39171;45.550;12.074;2023-11-21T04:14:12;15.90;;;14.23;;
53285;SDS011;39171;45.550;12.074;2023-11-21T04:20:32;17.10;;;14.27;;
53285;SDS011;39171;45.550;12.074;2023-11-21T04:26:52;18.07;;;14.80;;
53285;SDS011;39171;45.550;12.074;2023-11-21T04:33:12;17.60;;;15.68;;
53285;SDS011;39171;45.550;12.074;2023-11-21T04:39:32;18.85;;;16.85;;
53285;SDS011;39171;45.550;12.074;2023-11-21T04:45:34;18.98;;;16.23;;
53285;SDS011;39171;45.550;12.074;2023-11-21T04:51:53;17.25;;;15.05;;
53285;SDS011;39171;45.550;12.074;2023-11-21T04:58:14;18.63;;;16.63;;
53285;SDS011;39171;45.550;12.074;2023-11-21T05:04:34;19.93;;;16.27;;
53285;SDS011;39171;45.550;12.074;2023-11-21T05:10:53;17.95;;;16.05;;
53285;SDS011;39171;45.550;12.074;2023-11-21T05:16:55;17.17;;;15.20;;
53285;SDS011;39171;45.550;12.074;2023-11-21T05:23:15;17.73;;;15.93;;
53285;SDS011;39171;45.550;12.074;2023-11-21T05:29:35;17.53;;;11.40;;
53285;SDS011;39171;45.550;12.074;2023-11-21T05:35:56;14.90;;;13.23;;
53285;SDS011;39171;45.550;12.074;2023-11-21T05:42:16;15.30;;;13.70;;
53285;SDS011;39171;45.550;12.074;2023-11-21T05:48:30;15.82;;;13.77;;
53285;SDS011;39171;45.550;12.074;2023-11-21T05:54:50;17.03;;;14.70;;
53285;SDS011;39171;45.550;12.074;2023-11-21T06:01:10;16.77;;;14.90;;
53285;SDS011;39171;45.550;12.074;2023-11-21T06:07:32;15.05;;;13.45;;
53285;SDS011;39171;45.550;12.074;2023-11-21T06:13:52;16.60;;;14.73;;
53285;SDS011;39171;45.550;12.074;2023-11-21T06:20:15;16.10;;;14.40;;
53285;SDS011;39171;45.550;12.074;2023-11-21T06:26:37;17.10;;;15.15;;
53285;SDS011;39171;45.550;12.074;2023-11-21T06:32:58;16.65;;;14.77;;
53285;SDS011;39171;45.550;12.074;2023-11-21T06:39:19;16.50;;;14.80;;
53285;SDS011;39171;45.550;12.074;2023-11-21T06:45:41;18.30;;;15.63;;
53285;SDS011;39171;45.550;12.074;2023-11-21T06:52:01;17.53;;;15.33;;
53285;SDS011;39171;45.550;12.074;2023-11-21T06:58:22;17.55;;;14.43;;
53285;SDS011;39171;45.550;12.074;2023-11-21T07:04:42;17.90;;;15.23;;
53285;SDS011;39171;45.550;12.074;2023-11-21T07:11:03;18.07;;;15.07;;
53285;SDS011;39171;45.550;12.074;2023-11-21T07:17:23;16.85;;;14.40;;
53285;SDS011;39171;45.550;12.074;2023-11-21T07:23:43;17.60;;;11.43;;
53285;SDS011;39171;45.550;12.074;2023-11-21T07:30:04;16.73;;;13.87;;
53285;SDS011;39171;45.550;12.074;2023-11-21T07:36:25;14.65;;;12.82;;
53285;SDS011;39171;45.550;12.074;2023-11-21T07:42:27;14.35;;;12.82;;
53285;SDS011;39171;45.550;12.074;2023-11-21T07:48:31;14.32;;;12.43;;
53285;SDS011;39171;45.550;12.074;2023-11-21T07:54:34;12.93;;;10.38;;
53285;SDS011;39171;45.550;12.074;2023-11-21T08:00:36;12.07;;;10.88;;
53285;SDS011;39171;45.550;12.074;2023-11-21T08:06:40;12.32;;;11.13;;
53285;SDS011;39171;45.550;12.074;2023-11-21T08:12:42;13.52;;;11.68;;
53285;SDS011;39171;45.550;12.074;2023-11-21T08:18:43;11.30;;;10.10;;
53285;SDS011;39171;45.550;12.074;2023-11-21T08:24:45;11.63;;;10.45;;
53285;SDS011;39171;45.550;12.074;2023-11-21T08:30:49;11.07;;;9.75;;
53285;SDS011;39171;45.550;12.074;2023-11-21T08:36:50;11.13;;;9.95;;
53285;SDS011;39171;45.550;12.074;2023-11-21T08:42:52;9.65;;;8.63;;
53285;SDS011;39171;45.550;12.074;2023-11-21T08:48:53;9.90;;;8.45;;
53285;SDS011;39171;45.550;12.074;2023-11-21T08:54:55;9.05;;;8.13;;
53285;SDS011;39171;45.550;12.074;2023-11-21T09:00:57;8.80;;;7.60;;
53285;SDS011;39171;45.550;12.074;2023-11-21T09:06:59;7.88;;;7.07;;
53285;SDS011;39171;45.550;12.074;2023-11-21T09:13:01;8.00;;;7.20;;
53285;SDS011;39171;45.550;12.074;2023-11-21T09:19:02;7.70;;;6.68;;
53285;SDS011;39171;45.550;12.074;2023-11-21T09:25:06;7.15;;;6.40;;
53285;SDS011;39171;45.550;12.074;2023-11-21T09:31:09;6.93;;;6.22;;
53285;SDS011;39171;45.550;12.074;2023-11-21T09:37:10;7.35;;;5.90;;
53285;SDS011;39171;45.550;12.074;2023-11-21T09:43:15;6.22;;;5.63;;
53285;SDS011;39171;45.550;12.074;2023-11-21T09:49:18;6.78;;;5.72;;
53285;SDS011;39171;45.550;12.074;2023-11-21T09:55:27;6.07;;;5.35;;
53285;SDS011;39171;45.550;12.074;2023-11-21T10:01:32;5.80;;;5.20;;
53285;SDS011;39171;45.550;12.074;2023-11-21T10:07:36;6.95;;;6.03;;
53285;SDS011;39171;45.550;12.074;2023-11-21T10:13:46;5.70;;;5.13;;
53285;SDS011;39171;45.550;12.074;2023-11-21T10:19:48;5.88;;;5.28;;
53285;SDS011;39171;45.550;12.074;2023-11-21T10:25:54;5.72;;;5.13;;
53285;SDS011;39171;45.550;12.074;2023-11-21T10:31:56;6.32;;;5.63;;
53285;SDS011;39171;45.550;12.074;2023-11-21T10:38:00;5.18;;;4.68;;
53285;SDS011;39171;45.550;12.074;2023-11-21T10:44:02;6.03;;;4.82;;
53285;SDS011;39171;45.550;12.074;2023-11-21T10:50:08;5.10;;;4.47;;
53285;SDS011;39171;45.550;12.074;2023-11-21T10:56:12;5.35;;;4.00;;
53285;SDS011;39171;45.550;12.074;2023-11-21T11:02:21;5.63;;;4.53;;
53285;SDS011;39171;45.550;12.074;2023-11-21T11:08:35;5.60;;;4.90;;
53285;SDS011;39171;45.550;12.074;2023-11-21T11:14:40;5.47;;;4.93;;
53285;SDS011;39171;45.550;12.074;2023-11-21T11:20:45;5.40;;;4.53;;
53285;SDS011;39171;45.550;12.074;2023-11-21T11:33:33;6.25;;;4.97;;
53285;SDS011;39171;45.550;12.074;2023-11-21T11:39:44;6.65;;;4.93;;
53285;SDS011;39171;45.550;12.074;2023-11-21T11:45:46;5.68;;;4.93;;
53285;SDS011;39171;45.550;12.074;2023-11-21T11:58:37;5.30;;;4.30;;
53285;SDS011;39171;45.550;12.074;2023-11-21T12:04:42;4.73;;;3.93;;
53285;SDS011;39171;45.550;12.074;2023-11-21T12:10:44;4.88;;;3.88;;
53285;SDS011;39171;45.550;12.074;2023-11-21T12:16:46;5.22;;;4.35;;
53285;SDS011;39171;45.550;12.074;2023-11-21T12:23:06;5.80;;;4.93;;
53285;SDS011;39171;45.550;12.074;2023-11-21T12:29:10;6.45;;;4.22;;
53285;SDS011;39171;45.550;12.074;2023-11-21T12:35:12;6.45;;;4.40;;
53285;SDS011;39171;45.550;12.074;2023-11-21T12:41:15;6.55;;;5.30;;
53285;SDS011;39171;45.550;12.074;2023-11-21T12:47:18;6.60;;;3.92;;
53285;SDS011;39171;45.550;12.074;2023-11-21T12:53:22;4.68;;;3.70;;
53285;SDS011;39171;45.550;12.074;2023-11-21T12:59:24;5.70;;;3.80;;
53285;SDS011;39171;45.550;12.074;2023-11-21T13:05:28;5.53;;;3.65;;
53285;SDS011;39171;45.550;12.074;2023-11-21T13:11:33;5.97;;;3.63;;
53285;SDS011;39171;45.550;12.074;2023-11-21T13:17:35;5.60;;;3.85;;
53285;SDS011;39171;45.550;12.074;2023-11-21T13:23:37;5.80;;;2.95;;
53285;SDS011;39171;45.550;12.074;2023-11-21T13:29:38;5.43;;;3.28;;
53285;SDS011;39171;45.550;12.074;2023-11-21T13:35:40;5.43;;;3.17;;
53285;SDS011;39171;45.550;12.074;2023-11-21T13:41:48;6.50;;;3.65;;
53285;SDS011;39171;45.550;12.074;2023-11-21T13:47:52;6.07;;;2.78;;
53285;SDS011;39171;45.550;12.074;2023-11-21T13:53:59;7.15;;;3.60;;
53285;SDS011;39171;45.550;12.074;2023-11-21T14:00:01;9.30;;;4.45;;
53285;SDS011;39171;45.550;12.074;2023-11-21T14:06:05;7.82;;;3.60;;
53285;SDS011;39171;45.550;12.074;2023-11-21T14:12:15;5.53;;;3.20;;
53285;SDS011;39171;45.550;12.074;2023-11-21T14:18:16;5.10;;;2.70;;
53285;SDS011;39171;45.550;12.074;2023-11-21T14:24:22;5.22;;;2.55;;
53285;SDS011;39171;45.550;12.074;2023-11-21T14:30:33;4.32;;;2.63;;
53285;SDS011;39171;45.550;12.074;2023-11-21T14:36:39;4.90;;;2.67;;
53285;SDS011;39171;45.550;12.074;2023-11-21T14:42:44;3.33;;;2.25;;
53285;SDS011;39171;45.550;12.074;2023-11-21T14:48:48;3.70;;;2.50;;
53285;SDS011;39171;45.550;12.074;2023-11-21T14:55:20;4.22;;;2.05;;
53285;SDS011;39171;45.550;12.074;2023-11-21T15:01:30;4.78;;;2.40;;
53285;SDS011;39171;45.550;12.074;2023-11-21T15:07:51;3.80;;;1.65;;
53285;SDS011;39171;45.550;12.074;2023-11-21T15:13:57;3.10;;;2.03;;
53285;SDS011;39171;45.550;12.074;2023-11-21T15:20:02;2.63;;;1.80;;
53285;SDS011;39171;45.550;12.074;2023-11-21T15:26:10;2.13;;;1.50;;
53285;SDS011;39171;45.550;12.074;2023-11-21T15:32:12;2.20;;;1.58;;
53285;SDS011;39171;45.550;12.074;2023-11-21T15:38:13;2.85;;;1.60;;
53285;SDS011;39171;45.550;12.074;2023-11-21T15:44:15;2.35;;;1.65;;
53285;SDS011;39171;45.550;12.074;2023-11-21T15:50:17;2.03;;;1.25;;
53285;SDS011;39171;45.550;12.074;2023-11-21T15:56:19;1.95;;;1.55;;
53285;SDS011;39171;45.550;12.074;2023-11-21T16:02:20;2.03;;;1.15;;
53285;SDS011;39171;45.550;12.074;2023-11-21T16:08:22;1.40;;;0.95;;
53285;SDS011;39171;45.550;12.074;2023-11-21T16:14:23;1.65;;;1.13;;
53285;SDS011;39171;45.550;12.074;2023-11-21T16:20:29;1.55;;;1.08;;
53285;SDS011;39171;45.550;12.074;2023-11-21T16:26:30;1.60;;;1.20;;
53285;SDS011;39171;45.550;12.074;2023-11-21T16:32:33;3.08;;;1.25;;
53285;SDS011;39171;45.550;12.074;2023-11-21T16:38:45;2.72;;;1.70;;
53285;SDS011;39171;45.550;12.074;2023-11-21T16:44:48;2.63;;;1.25;;
53285;SDS011;39171;45.550;12.074;2023-11-21T16:50:50;1.50;;;1.10;;
53285;SDS011;39171;45.550;12.074;2023-11-21T16:56:55;2.30;;;1.20;;
53285;SDS011;39171;45.550;12.074;2023-11-21T17:02:56;1.80;;;1.05;;
53285;SDS011;39171;45.550;12.074;2023-11-21T17:08:58;1.70;;;1.15;;
53285;SDS011;39171;45.550;12.074;2023-11-21T17:15:01;1.50;;;0.95;;
53285;SDS011;39171;45.550;12.074;2023-11-21T17:21:07;1.88;;;1.10;;
53285;SDS011;39171;45.550;12.074;2023-11-21T17:27:10;1.95;;;1.10;;
53285;SDS011;39171;45.550;12.074;2023-11-21T17:33:11;1.90;;;1.10;;
53285;SDS011;39171;45.550;12.074;2023-11-21T17:39:13;2.13;;;1.45;;
53285;SDS011;39171;45.550;12.074;2023-11-21T17:45:14;1.95;;;1.33;;
53285;SDS011;39171;45.550;12.074;2023-11-21T17:51:20;1.85;;;1.45;;
53285;SDS011;39171;45.550;12.074;2023-11-21T17:57:25;2.15;;;1.70;;
53285;SDS011;39171;45.550;12.074;2023-11-21T18:03:27;2.65;;;1.88;;
53285;SDS011;39171;45.550;12.074;2023-11-21T18:09:28;2.63;;;1.80;;
53285;SDS011;39171;45.550;12.074;2023-11-21T18:15:30;2.40;;;1.65;;
53285;SDS011;39171;45.550;12.074;2023-11-21T18:21:31;2.63;;;1.90;;
53285;SDS011;39171;45.550;12.074;2023-11-21T18:27:43;2.50;;;1.98;;
53285;SDS011;39171;45.550;12.074;2023-11-21T18:33:45;2.58;;;2.03;;
53285;SDS011;39171;45.550;12.074;2023-11-21T18:39:46;2.67;;;2.22;;
53285;SDS011;39171;45.550;12.074;2023-11-21T18:45:47;2.72;;;2.10;;
53285;SDS011;39171;45.550;12.074;2023-11-21T18:51:50;3.13;;;2.50;;
53285;SDS011;39171;45.550;12.074;2023-11-21T18:57:52;2.75;;;2.05;;
53285;SDS011;39171;45.550;12.074;2023-11-21T19:03:53;2.83;;;2.10;;
53285;SDS011;39171;45.550;12.074;2023-11-21T19:09:56;2.85;;;2.10;;
53285;SDS011;39171;45.550;12.074;2023-11-21T19:15:57;3.90;;;2.53;;
53285;SDS011;39171;45.550;12.074;2023-11-21T19:22:01;2.70;;;2.30;;
53285;SDS011;39171;45.550;12.074;2023-11-21T19:28:03;2.75;;;2.42;;
53285;SDS011;39171;45.550;12.074;2023-11-21T19:34:04;4.55;;;3.22;;
53285;SDS011;39171;45.550;12.074;2023-11-21T19:40:06;3.97;;;3.20;;
53285;SDS011;39171;45.550;12.074;2023-11-21T19:46:08;4.15;;;3.65;;
53285;SDS011;39171;45.550;12.074;2023-11-21T19:52:09;3.92;;;3.53;;
53285;SDS011;39171;45.550;12.074;2023-11-21T19:58:11;5.00;;;3.88;;
53285;SDS011;39171;45.550;12.074;2023-11-21T20:04:15;4.38;;;3.63;;
53285;SDS011;39171;45.550;12.074;2023-11-21T20:10:19;5.00;;;3.90;;
53285;SDS011;39171;45.550;12.074;2023-11-21T20:16:26;5.90;;;4.55;;
53285;SDS011;39171;45.550;12.074;2023-11-21T20:22:28;5.50;;;4.25;;
53285;SDS011;39171;45.550;12.074;2023-11-21T20:28:29;5.25;;;4.30;;
53285;SDS011;39171;45.550;12.074;2023-11-21T20:34:32;6.10;;;5.10;;
53285;SDS011;39171;45.550;12.074;2023-11-21T20:40:36;5.57;;;4.82;;
53285;SDS011;39171;45.550;12.074;2023-11-21T20:46:41;5.95;;;5.30;;
53285;SDS011;39171;45.550;12.074;2023-11-21T20:52:43;6.22;;;5.60;;
53285;SDS011;39171;45.550;12.074;2023-11-21T20:58:48;5.78;;;5.13;;
53285;SDS011;39171;45.550;12.074;2023-11-21T21:04:50;7.63;;;6.22;;
53285;SDS011;39171;45.550;12.074;2023-11-21T21:10:56;7.72;;;6.28;;
53285;SDS011;39171;45.550;12.074;2023-11-21T21:16:59;6.82;;;6.10;;
53285;SDS011;39171;45.550;12.074;2023-11-21T21:23:01;7.70;;;6.68;;
53285;SDS011;39171;45.550;12.074;2023-11-21T21:29:05;7.72;;;6.93;;
53285;SDS011;39171;45.550;12.074;2023-11-21T21:35:10;9.23;;;7.65;;
53285;SDS011;39171;45.550;12.074;2023-11-21T21:41:15;8.52;;;7.07;;
53285;SDS011;39171;45.550;12.074;2023-11-21T21:47:18;9.23;;;8.00;;
53285;SDS011;39171;45.550;12.074;2023-11-21T21:53:20;9.40;;;8.30;;
53285;SDS011;39171;45.550;12.074;2023-11-21T21:59:21;8.95;;;7.82;;
53285;SDS011;39171;45.550;12.074;2023-11-21T22:05:23;9.98;;;8.32;;
53285;SDS011;39171;45.550;12.074;2023-11-21T22:11:25;10.27;;;7.95;;
53285;SDS011;39171;45.550;12.074;2023-11-21T22:17:27;9.38;;;7.72;;
53285;SDS011;39171;45.550;12.074;2023-11-21T22:23:29;9.60;;;8.02;;
53285;SDS011;39171;45.550;12.074;2023-11-21T22:29:31;8.95;;;7.80;;
53285;SDS011;39171;45.550;12.074;2023-11-21T22:35:33;9.15;;;7.97;;
53285;SDS011;39171;45.550;12.074;2023-11-21T22:41:35;8.95;;;8.00;;
53285;SDS011;39171;45.550;12.074;2023-11-21T22:47:46;7.68;;;6.88;;
53285;SDS011;39171;45.550;12.074;2023-11-21T22:53:48;9.65;;;7.45;;
53285;SDS011;39171;45.550;12.074;2023-11-21T22:59:52;8.02;;;7.22;;
53285;SDS011;39171;45.550;12.074;2023-11-21T23:05:54;9.55;;;8.00;;
53285;SDS011;39171;45.550;12.074;2023-11-21T23:11:58;9.10;;;7.75;;
53285;SDS011;39171;45.550;12.074;2023-11-21T23:17:59;8.00;;;7.20;;
53285;SDS011;39171;45.550;12.074;2023-11-21T23:24:01;7.75;;;6.95;;
53285;SDS011;39171;45.550;12.074;2023-11-21T23:30:10;8.95;;;7.10;;
53285;SDS011;39171;45.550;12.074;2023-11-21T23:36:12;7.15;;;6.45;;
53285;SDS011;39171;45.550;12.074;2023-11-21T23:42:13;8.23;;;7.03;;
53285;SDS011;39171;45.550;12.074;2023-11-21T23:48:17;8.60;;;7.38;;
53285;SDS011;39171;45.550;12.074;2023-11-21T23:54:18;8.93;;;7.50;;
